Time;durP1;ratioP1;P1;durP2;ratioP2;P2;SDS_P1;SDS_P2;PMS_P1;PMS_P2;Temp;Humidity;BMP_temperature;BMP_pressure;BME280_temperature;BME280_humidity;BME280_pressure;Samples;Min_cycle;Max_cycle;Signal;HPM_P1;HPM_P2
2022/10/31 00:00:45;;;;;;;6.23;3.57;;;;;;;;;;4909057;29;20208;-64
2022/10/31 00:03:12;;;;;;;8.23;3.70;;;;;;;;;;4910582;29;20212;-64
2022/10/31 00:05:42;;;;;;;7.77;3.90;;;;;;;;;;4905631;29;20211;-64
2022/10/31 00:08:15;;;;;;;4.37;3.40;;;;;;;;;;4913527;29;20217;-64
2022/10/31 00:10:42;;;;;;;4.77;3.23;;;;;;;;;;4902819;29;20776;-63
2022/10/31 00:13:10;;;;;;;10.10;3.80;;;;;;;;;;4913265;29;20241;-63
2022/10/31 00:15:37;;;;;;;8.23;4.13;;;;;;;;;;4912498;29;20208;-64
2022/10/31 00:18:06;;;;;;;6.03;4.37;;;;;;;;;;4911501;29;20212;-64
2022/10/31 00:20:33;;;;;;;6.70;4.60;;;;;;;;;;4906327;29;20220;-64
2022/10/31 00:23:00;;;;;;;5.23;3.93;;;;;;;;;;4910092;29;20211;-63
2022/10/31 00:25:29;;;;;;;3.80;3.50;;;;;;;;;;4910656;29;20204;-64
2022/10/31 00:27:56;;;;;;;4.23;3.67;;;;;;;;;;4910171;29;20213;-64
2022/10/31 00:30:23;;;;;;;4.63;4.10;;;;;;;;;;4912984;29;20209;-64
2022/10/31 00:32:50;;;;;;;7.77;4.00;;;;;;;;;;4906231;29;20235;-63
2022/10/31 00:35:18;;;;;;;6.00;4.03;;;;;;;;;;4911024;29;20212;-64
2022/10/31 00:37:45;;;;;;;3.80;3.47;;;;;;;;;;4907045;29;20687;-64
2022/10/31 00:40:13;;;;;;;6.40;3.93;;;;;;;;;;4905777;29;20215;-64
2022/10/31 00:42:41;;;;;;;5.67;3.57;;;;;;;;;;4908802;29;20201;-64
2022/10/31 00:45:08;;;;;;;7.27;3.83;;;;;;;;;;4913655;29;20676;-64
2022/10/31 00:47:36;;;;;;;4.27;3.87;;;;;;;;;;4908145;29;20664;-64
2022/10/31 00:50:03;;;;;;;5.43;3.93;;;;;;;;;;4910884;29;20208;-64
2022/10/31 00:52:31;;;;;;;6.20;3.87;;;;;;;;;;4910355;29;20224;-63
2022/10/31 00:54:58;;;;;;;7.70;3.80;;;;;;;;;;4908509;29;20236;-63
2022/10/31 00:57:25;;;;;;;7.73;4.00;;;;;;;;;;4904983;29;20240;-64
2022/10/31 00:59:52;;;;;;;4.53;4.07;;;;;;;;;;4904593;29;20213;-63
2022/10/31 01:02:19;;;;;;;5.20;3.97;;;;;;;;;;4904997;29;20215;-63
2022/10/31 01:04:46;;;;;;;4.30;3.77;;;;;;;;;;4910070;29;20204;-63
2022/10/31 01:07:13;;;;;;;4.20;3.70;;;;;;;;;;4906803;29;20204;-63
2022/10/31 01:09:42;;;;;;;6.73;3.87;;;;;;;;;;4911215;29;20239;-63
2022/10/31 01:12:09;;;;;;;7.53;3.40;;;;;;;;;;4911791;29;20696;-64
2022/10/31 01:14:36;;;;;;;5.00;4.10;;;;;;;;;;4905713;29;20205;-64
2022/10/31 01:17:03;;;;;;;4.63;3.57;;;;;;;;;;4911579;29;20212;-64
2022/10/31 01:19:31;;;;;;;5.20;3.87;;;;;;;;;;4909688;29;20633;-65
2022/10/31 01:21:58;;;;;;;4.90;3.60;;;;;;;;;;4905499;29;20211;-63
2022/10/31 01:24:25;;;;;;;5.00;2.90;;;;;;;;;;4904682;29;20634;-64
2022/10/31 01:26:53;;;;;;;4.93;3.83;;;;;;;;;;4907936;29;20217;-63
2022/10/31 01:29:20;;;;;;;5.97;3.50;;;;;;;;;;4909038;29;20301;-65
2022/10/31 01:31:47;;;;;;;6.07;3.90;;;;;;;;;;4903286;29;20236;-63
2022/10/31 01:34:15;;;;;;;6.93;4.03;;;;;;;;;;4910943;29;20253;-64
2022/10/31 01:36:44;;;;;;;8.43;3.63;;;;;;;;;;4911485;29;20220;-64
2022/10/31 01:39:12;;;;;;;5.37;3.80;;;;;;;;;;4907207;29;20213;-65
2022/10/31 01:41:41;;;;;;;3.40;3.17;;;;;;;;;;4911611;29;20211;-63
2022/10/31 01:44:22;;;;;;;6.57;3.83;;;;;;;;;;4908855;29;20276;-64
2022/10/31 01:46:52;;;;;;;3.60;3.27;;;;;;;;;;4906699;29;20694;-64
2022/10/31 01:49:23;;;;;;;6.13;4.00;;;;;;;;;;4906876;29;20205;-64
2022/10/31 01:51:53;;;;;;;5.17;3.97;;;;;;;;;;4907645;29;20212;-63
2022/10/31 01:54:22;;;;;;;7.27;3.97;;;;;;;;;;4909350;29;20572;-64
2022/10/31 01:56:51;;;;;;;4.37;3.90;;;;;;;;;;4910627;29;20248;-64
2022/10/31 01:59:20;;;;;;;6.87;4.40;;;;;;;;;;4905784;29;20295;-64
2022/10/31 02:01:47;;;;;;;8.60;4.10;;;;;;;;;;4905987;29;20677;-64
2022/10/31 02:04:16;;;;;;;11.07;3.67;;;;;;;;;;4912266;29;20227;-63
2022/10/31 02:06:47;;;;;;;7.27;3.63;;;;;;;;;;4898821;29;20213;-64
2022/10/31 02:09:14;;;;;;;3.63;3.30;;;;;;;;;;4905235;29;20224;-64
2022/10/31 02:11:42;;;;;;;4.40;3.93;;;;;;;;;;4910630;29;20243;-65
2022/10/31 02:14:09;;;;;;;7.97;3.90;;;;;;;;;;4912114;29;20356;-64
2022/10/31 02:16:36;;;;;;;6.10;3.77;;;;;;;;;;4907198;29;20600;-67
2022/10/31 02:19:04;;;;;;;6.20;3.83;;;;;;;;;;4907920;29;20208;-63
2022/10/31 02:21:35;;;;;;;4.37;3.70;;;;;;;;;;4904301;29;20212;-65
2022/10/31 02:24:20;;;;;;;3.83;3.53;;;;;;;;;;4911817;29;20212;-64
2022/10/31 02:26:57;;;;;;;13.73;4.47;;;;;;;;;;4911131;29;20208;-64
2022/10/31 02:29:32;;;;;;;9.30;4.20;;;;;;;;;;4908628;29;20215;-63
2022/10/31 02:32:02;;;;;;;12.30;3.97;;;;;;;;;;4911942;29;20212;-63
2022/10/31 02:34:33;;;;;;;7.60;4.40;;;;;;;;;;4910789;29;20208;-64
2022/10/31 02:37:03;;;;;;;7.13;4.00;;;;;;;;;;4906982;29;20204;-64
2022/10/31 02:39:34;;;;;;;4.27;3.87;;;;;;;;;;4911720;29;20209;-64
2022/10/31 02:42:05;;;;;;;4.90;3.50;;;;;;;;;;4912351;29;20208;-63
2022/10/31 02:44:37;;;;;;;12.93;4.07;;;;;;;;;;4911892;29;20676;-64
2022/10/31 02:47:07;;;;;;;6.13;3.73;;;;;;;;;;4912104;29;20215;-61
2022/10/31 02:49:35;;;;;;;5.83;4.07;;;;;;;;;;4912355;29;20209;-65
2022/10/31 02:52:02;;;;;;;7.53;4.23;;;;;;;;;;4911929;29;20204;-64
2022/10/31 02:54:30;;;;;;;5.50;4.53;;;;;;;;;;4909453;29;20224;-64
2022/10/31 02:57:00;;;;;;;6.03;4.50;;;;;;;;;;4909482;29;20666;-63
2022/10/31 02:59:30;;;;;;;12.73;5.23;;;;;;;;;;4911139;29;20216;-63
2022/10/31 03:02:16;;;;;;;7.43;4.40;;;;;;;;;;4911352;29;20260;-64
2022/10/31 03:04:55;;;;;;;9.10;3.90;;;;;;;;;;4901141;29;20231;-63
2022/10/31 03:07:26;;;;;;;6.73;3.93;;;;;;;;;;4909157;29;20220;-64
2022/10/31 03:09:55;;;;;;;6.50;3.60;;;;;;;;;;4910891;29;20219;-63
2022/10/31 03:12:26;;;;;;;5.30;3.10;;;;;;;;;;4908952;29;20208;-63
2022/10/31 03:14:55;;;;;;;3.77;3.37;;;;;;;;;;4903452;29;20216;-64
2022/10/31 03:17:24;;;;;;;3.23;3.03;;;;;;;;;;4909574;29;20213;-63
2022/10/31 03:19:54;;;;;;;3.17;2.87;;;;;;;;;;4908620;29;20759;-63
2022/10/31 03:22:23;;;;;;;8.50;3.23;;;;;;;;;;4911253;29;20212;-63
2022/10/31 03:24:50;;;;;;;2.80;2.60;;;;;;;;;;4910480;29;20217;-63
2022/10/31 03:27:20;;;;;;;3.07;2.77;;;;;;;;;;4910109;29;20255;-64
2022/10/31 03:29:48;;;;;;;3.27;2.83;;;;;;;;;;4911404;29;20217;-63
2022/10/31 03:32:18;;;;;;;5.63;3.67;;;;;;;;;;4907656;29;20205;-63
2022/10/31 03:34:46;;;;;;;3.10;2.83;;;;;;;;;;4914368;29;20212;-63
2022/10/31 03:37:16;;;;;;;3.30;3.00;;;;;;;;;;4908399;29;20660;-63
2022/10/31 03:39:45;;;;;;;2.87;2.67;;;;;;;;;;4913806;29;20572;-63
2022/10/31 03:42:14;;;;;;;6.23;3.50;;;;;;;;;;4914419;29;20217;-63
2022/10/31 03:44:44;;;;;;;5.07;3.77;;;;;;;;;;4914863;29;20223;-64
2022/10/31 03:47:11;;;;;;;4.30;3.90;;;;;;;;;;4914831;29;20207;-63
2022/10/31 03:49:38;;;;;;;8.07;3.70;;;;;;;;;;4914436;29;20216;-63
2022/10/31 03:52:10;;;;;;;3.60;2.70;;;;;;;;;;4913646;29;20212;-63
2022/10/31 03:54:42;;;;;;;2.57;2.47;;;;;;;;;;4912589;29;20240;-63
2022/10/31 03:57:13;;;;;;;2.93;2.73;;;;;;;;;;4913202;29;20580;-64
2022/10/31 03:59:42;;;;;;;2.87;2.63;;;;;;;;;;4914511;29;20323;-63
2022/10/31 04:02:12;;;;;;;4.00;3.10;;;;;;;;;;4910132;29;20209;-63
2022/10/31 04:04:46;;;;;;;3.13;2.80;;;;;;;;;;4912846;29;20205;-64
2022/10/31 04:07:14;;;;;;;3.00;2.80;;;;;;;;;;4911003;29;20213;-64
2022/10/31 04:09:44;;;;;;;2.77;2.57;;;;;;;;;;4913621;29;20217;-63
2022/10/31 04:12:14;;;;;;;6.43;2.80;;;;;;;;;;4914759;29;20585;-63
2022/10/31 04:14:42;;;;;;;3.20;3.00;;;;;;;;;;4908959;29;20236;-63
2022/10/31 04:17:11;;;;;;;3.27;3.00;;;;;;;;;;4910793;29;20669;-63
2022/10/31 04:19:38;;;;;;;4.63;2.87;;;;;;;;;;4912676;29;20231;-64
2022/10/31 04:22:05;;;;;;;6.50;3.27;;;;;;;;;;4911843;29;20205;-63
2022/10/31 04:24:32;;;;;;;3.40;3.10;;;;;;;;;;4910959;29;20208;-64
2022/10/31 04:27:01;;;;;;;3.60;3.30;;;;;;;;;;4912432;29;20209;-64
2022/10/31 04:29:28;;;;;;;5.27;3.13;;;;;;;;;;4913779;29;20212;-64
2022/10/31 04:31:55;;;;;;;5.50;4.07;;;;;;;;;;4912516;29;20211;-64
2022/10/31 04:34:22;;;;;;;4.20;3.50;;;;;;;;;;4912303;29;20459;-64
2022/10/31 04:36:49;;;;;;;7.67;4.10;;;;;;;;;;4913275;29;20220;-64
2022/10/31 04:39:16;;;;;;;9.50;3.87;;;;;;;;;;4910697;29;20212;-64
2022/10/31 04:41:43;;;;;;;7.30;3.57;;;;;;;;;;4909656;29;20212;-64
2022/10/31 04:44:11;;;;;;;4.00;3.57;;;;;;;;;;4912384;29;20208;-64
2022/10/31 04:46:38;;;;;;;7.50;3.60;;;;;;;;;;4911900;29;20597;-62
2022/10/31 04:49:05;;;;;;;6.37;3.70;;;;;;;;;;4911501;29;20204;-62
2022/10/31 04:51:32;;;;;;;6.87;3.50;;;;;;;;;;4912071;29;20204;-63
2022/10/31 04:53:59;;;;;;;7.57;3.10;;;;;;;;;;4909835;29;20236;-62
2022/10/31 04:56:26;;;;;;;4.77;3.57;;;;;;;;;;4909898;29;20993;-62
2022/10/31 04:58:53;;;;;;;5.23;3.03;;;;;;;;;;4911750;29;20208;-63
2022/10/31 05:01:22;;;;;;;6.10;3.43;;;;;;;;;;4909894;29;20211;-62
2022/10/31 05:03:49;;;;;;;8.73;3.33;;;;;;;;;;4910977;29;20205;-64
2022/10/31 05:06:16;;;;;;;7.33;3.63;;;;;;;;;;4911440;29;20213;-62
2022/10/31 05:08:43;;;;;;;5.30;3.10;;;;;;;;;;4911013;29;20208;-62
2022/10/31 05:11:10;;;;;;;3.03;2.83;;;;;;;;;;4911789;29;20205;-62
2022/10/31 05:13:46;;;;;;;3.83;3.37;;;;;;;;;;4910388;29;20232;-63
2022/10/31 05:16:13;;;;;;;4.03;3.53;;;;;;;;;;4912149;29;20208;-62
2022/10/31 05:18:42;;;;;;;5.67;3.60;;;;;;;;;;4911939;29;20219;-63
2022/10/31 05:21:09;;;;;;;6.00;3.27;;;;;;;;;;4911317;29;20215;-62
2022/10/31 05:23:36;;;;;;;4.93;3.77;;;;;;;;;;4908450;29;20204;-64
2022/10/31 05:26:03;;;;;;;5.30;3.57;;;;;;;;;;4912343;29;20209;-63
2022/10/31 05:28:30;;;;;;;5.37;3.33;;;;;;;;;;4912301;29;20217;-63
2022/10/31 05:30:57;;;;;;;5.60;3.23;;;;;;;;;;4911907;29;20208;-63
2022/10/31 05:33:24;;;;;;;3.30;3.03;;;;;;;;;;4911333;29;20763;-63
2022/10/31 05:35:53;;;;;;;8.63;3.53;;;;;;;;;;4911573;29;20679;-64
2022/10/31 05:38:20;;;;;;;3.67;3.13;;;;;;;;;;4912656;29;20212;-64
2022/10/31 05:40:47;;;;;;;10.53;3.93;;;;;;;;;;4911445;29;20231;-63
2022/10/31 05:43:14;;;;;;;6.63;3.70;;;;;;;;;;4912651;29;20212;-65
2022/10/31 05:45:41;;;;;;;4.13;3.80;;;;;;;;;;4912910;29;20212;-64
2022/10/31 05:48:08;;;;;;;4.07;3.53;;;;;;;;;;4910982;29;20785;-64
2022/10/31 05:50:59;;;;;;;3.87;3.50;;;;;;;;;;4912872;29;20289;-63
2022/10/31 05:53:27;;;;;;;6.63;3.53;;;;;;;;;;4901217;29;20233;-65
2022/10/31 05:55:54;;;;;;;4.00;3.70;;;;;;;;;;4912260;29;20216;-64
2022/10/31 05:58:21;;;;;;;6.57;3.37;;;;;;;;;;4907167;29;20781;-63
2022/10/31 06:00:48;;;;;;;4.13;3.43;;;;;;;;;;4908214;29;20657;-63
2022/10/31 06:03:15;;;;;;;5.97;3.83;;;;;;;;;;4910043;29;20643;-63
2022/10/31 06:05:46;;;;;;;3.37;3.07;;;;;;;;;;4911288;29;20212;-64
2022/10/31 06:08:13;;;;;;;7.47;3.17;;;;;;;;;;4908059;29;20224;-65
2022/10/31 06:10:41;;;;;;;4.17;3.57;;;;;;;;;;4911016;29;20211;-65
2022/10/31 06:13:08;;;;;;;6.27;3.67;;;;;;;;;;4907382;29;20597;-65
2022/10/31 06:15:35;;;;;;;3.90;3.50;;;;;;;;;;4907473;29;20231;-65
2022/10/31 06:18:04;;;;;;;7.77;5.97;;;;;;;;;;4909497;29;20223;-65
2022/10/31 06:20:31;;;;;;;6.17;4.27;;;;;;;;;;4909949;29;20226;-64
2022/10/31 06:22:58;;;;;;;4.00;3.53;;;;;;;;;;4910143;29;20212;-66
2022/10/31 06:25:25;;;;;;;7.47;4.13;;;;;;;;;;4908665;29;20208;-67
2022/10/31 06:27:55;;;;;;;12.20;3.67;;;;;;;;;;4910591;29;20572;-69
2022/10/31 06:30:22;;;;;;;7.90;3.90;;;;;;;;;;4908981;29;20215;-62
2022/10/31 06:32:50;;;;;;;5.03;3.53;;;;;;;;;;4909793;29;20220;-62
2022/10/31 06:35:17;;;;;;;10.10;3.47;;;;;;;;;;4911398;29;20228;-69
2022/10/31 06:37:44;;;;;;;9.60;3.80;;;;;;;;;;4907430;29;20224;-62
2022/10/31 06:40:12;;;;;;;4.93;3.77;;;;;;;;;;4908816;29;20578;-64
2022/10/31 06:42:39;;;;;;;9.73;4.63;;;;;;;;;;4910927;29;20221;-64
2022/10/31 06:45:08;;;;;;;10.63;4.40;;;;;;;;;;4909904;29;20219;-61
2022/10/31 06:47:35;;;;;;;5.57;3.77;;;;;;;;;;4910946;29;20216;-66
2022/10/31 06:50:02;;;;;;;5.03;4.00;;;;;;;;;;4911104;29;20209;-65
2022/10/31 06:52:29;;;;;;;5.70;4.50;;;;;;;;;;4912292;29;20216;-62
2022/10/31 06:54:56;;;;;;;3.87;3.57;;;;;;;;;;4907339;29;20240;-62
2022/10/31 06:57:23;;;;;;;10.87;5.03;;;;;;;;;;4908150;29;20244;-62
2022/10/31 06:59:50;;;;;;;8.67;6.50;;;;;;;;;;4910525;29;20219;-62
2022/10/31 07:02:18;;;;;;;4.30;3.90;;;;;;;;;;4910916;29;20215;-63
2022/10/31 07:04:45;;;;;;;6.20;3.77;;;;;;;;;;4913234;29;20216;-62
2022/10/31 07:07:12;;;;;;;10.73;5.90;;;;;;;;;;4914733;29;20219;-62
2022/10/31 07:09:39;;;;;;;9.17;5.77;;;;;;;;;;4914463;29;20228;-62
2022/10/31 07:12:07;;;;;;;6.33;5.10;;;;;;;;;;4914361;29;20310;-62
2022/10/31 07:14:34;;;;;;;9.27;6.30;;;;;;;;;;4914444;29;20619;-61
2022/10/31 07:17:01;;;;;;;29.03;11.37;;;;;;;;;;4914599;29;20209;-61
2022/10/31 07:19:29;;;;;;;9.83;6.10;;;;;;;;;;4914240;29;20228;-62
2022/10/31 07:21:56;;;;;;;7.17;4.67;;;;;;;;;;4914292;29;20215;-63
2022/10/31 07:24:23;;;;;;;6.93;4.40;;;;;;;;;;4914356;29;20215;-62
2022/10/31 07:26:50;;;;;;;8.33;5.27;;;;;;;;;;4914266;29;20208;-63
2022/10/31 07:29:17;;;;;;;16.90;6.80;;;;;;;;;;4914277;29;20216;-63
2022/10/31 07:31:44;;;;;;;8.47;5.40;;;;;;;;;;4914262;29;20687;-62
2022/10/31 07:34:11;;;;;;;7.93;4.73;;;;;;;;;;4914352;29;20340;-63
2022/10/31 07:36:40;;;;;;;8.40;5.80;;;;;;;;;;4914179;29;20699;-65
2022/10/31 07:39:07;;;;;;;10.27;4.80;;;;;;;;;;4913973;29;20228;-62
2022/10/31 07:41:34;;;;;;;6.67;4.67;;;;;;;;;;4914127;29;20224;-62
2022/10/31 07:44:01;;;;;;;5.73;4.47;;;;;;;;;;4914343;29;20208;-63
2022/10/31 07:46:28;;;;;;;5.83;4.23;;;;;;;;;;4914256;29;20587;-63
2022/10/31 07:48:55;;;;;;;8.83;4.93;;;;;;;;;;4914124;29;20212;-63
2022/10/31 07:51:23;;;;;;;5.77;4.50;;;;;;;;;;4914069;29;20220;-63
2022/10/31 07:53:52;;;;;;;7.17;4.30;;;;;;;;;;4912145;29;20346;-63
2022/10/31 07:56:19;;;;;;;7.90;4.70;;;;;;;;;;4911865;29;20256;-63
2022/10/31 07:58:46;;;;;;;7.47;5.70;;;;;;;;;;4913843;29;20213;-63
2022/10/31 08:01:13;;;;;;;7.73;5.37;;;;;;;;;;4913592;29;20213;-62
2022/10/31 08:03:40;;;;;;;7.20;4.70;;;;;;;;;;4913869;29;20220;-64
2022/10/31 08:06:07;;;;;;;7.50;5.23;;;;;;;;;;4913735;29;20627;-63
2022/10/31 08:08:34;;;;;;;6.20;4.27;;;;;;;;;;4913525;29;20587;-63
2022/10/31 08:11:03;;;;;;;8.27;4.03;;;;;;;;;;4913358;29;20225;-62
2022/10/31 08:13:30;;;;;;;4.33;3.93;;;;;;;;;;4913419;29;20216;-62
2022/10/31 08:16:03;;;;;;;6.00;4.17;;;;;;;;;;4912685;29;20242;-62
2022/10/31 08:18:30;;;;;;;4.63;4.13;;;;;;;;;;4913720;29;20208;-63
2022/10/31 08:20:57;;;;;;;8.20;4.13;;;;;;;;;;4913496;29;20223;-63
2022/10/31 08:23:24;;;;;;;8.20;3.97;;;;;;;;;;4913472;29;20698;-63
2022/10/31 08:25:51;;;;;;;5.60;4.20;;;;;;;;;;4913608;29;20287;-63
2022/10/31 08:28:19;;;;;;;4.73;3.67;;;;;;;;;;4913611;29;20220;-63
2022/10/31 08:30:47;;;;;;;5.07;3.77;;;;;;;;;;4913367;29;20223;-62
2022/10/31 08:33:15;;;;;;;6.00;4.00;;;;;;;;;;4913119;29;21034;-63
2022/10/31 08:35:42;;;;;;;7.03;3.47;;;;;;;;;;4913154;29;20251;-63
2022/10/31 08:38:10;;;;;;;4.53;4.00;;;;;;;;;;4913099;29;20263;-63
2022/10/31 08:40:37;;;;;;;4.93;3.73;;;;;;;;;;4912942;29;20212;-63
2022/10/31 08:43:05;;;;;;;5.17;3.73;;;;;;;;;;4913244;29;20223;-62
2022/10/31 08:45:34;;;;;;;4.77;4.03;;;;;;;;;;4912587;29;20212;-62
2022/10/31 08:48:01;;;;;;;5.37;4.23;;;;;;;;;;4913075;29;20216;-62
2022/10/31 08:50:29;;;;;;;3.50;3.20;;;;;;;;;;4912905;29;20213;-62
2022/10/31 08:53:00;;;;;;;4.80;4.00;;;;;;;;;;4912843;29;20220;-63
2022/10/31 08:55:27;;;;;;;6.87;3.90;;;;;;;;;;4912608;29;20417;-63
2022/10/31 08:57:56;;;;;;;7.53;3.47;;;;;;;;;;4912769;29;20703;-63
2022/10/31 09:00:23;;;;;;;4.17;3.40;;;;;;;;;;4912579;29;20266;-62
2022/10/31 09:02:57;;;;;;;5.10;4.03;;;;;;;;;;4912752;29;20903;-63
2022/10/31 09:05:24;;;;;;;4.37;3.30;;;;;;;;;;4912880;29;20263;-63
2022/10/31 09:07:51;;;;;;;6.20;3.37;;;;;;;;;;4912683;29;20943;-64
2022/10/31 09:10:18;;;;;;;6.80;3.65;;;;;;;;;;4912508;29;20228;-73
2022/10/31 09:12:45;;;;;;;3.80;2.95;;;;;;;;;;4912278;29;20216;-64
2022/10/31 09:15:12;;;;;;;3.47;3.03;;;;;;;;;;4912353;29;20258;-63
2022/10/31 09:17:39;;;;;;;2.90;2.63;;;;;;;;;;4927195;29;20233;-63
2022/10/31 09:20:08;;;;;;;3.87;3.27;;;;;;;;;;4931356;29;20218;-65
2022/10/31 09:22:35;;;;;;;5.25;3.13;;;;;;;;;;4930970;29;20663;-64
2022/10/31 09:25:02;;;;;;;7.47;3.17;;;;;;;;;;4930830;29;20211;-64
2022/10/31 09:27:29;;;;;;;3.00;2.57;;;;;;;;;;4931137;29;20219;-64
2022/10/31 09:29:56;;;;;;;3.90;2.90;;;;;;;;;;4931301;29;20238;-67
2022/10/31 09:32:24;;;;;;;3.95;3.28;;;;;;;;;;4927875;29;20227;-64
2022/10/31 09:34:51;;;;;;;5.33;2.87;;;;;;;;;;4912160;29;20228;-64
2022/10/31 09:37:19;;;;;;;3.70;3.40;;;;;;;;;;4912027;29;20223;-64
2022/10/31 09:39:46;;;;;;;4.20;3.28;;;;;;;;;;4911870;29;20679;-64
2022/10/31 09:42:31;;;;;;;4.53;3.60;;;;;;;;;;4911684;29;20303;-65
2022/10/31 09:45:03;;;;;;;3.17;2.97;;;;;;;;;;4911710;29;20216;-64
2022/10/31 09:47:35;;;;;;;4.87;3.30;;;;;;;;;;4911838;29;20571;-65
2022/10/31 09:50:13;;;;;;;3.07;2.77;;;;;;;;;;4911534;29;20216;-64
2022/10/31 09:52:44;;;;;;;3.63;3.33;;;;;;;;;;4910791;29;20211;-62
2022/10/31 09:55:16;;;;;;;3.47;3.25;;;;;;;;;;4911829;29;20252;-62
2022/10/31 09:57:43;;;;;;;3.83;3.53;;;;;;;;;;4911691;29;20248;-63
2022/10/31 10:00:16;;;;;;;5.85;4.07;;;;;;;;;;4893762;29;20695;-63
2022/10/31 10:02:44;;;;;;;4.60;3.60;;;;;;;;;;4896191;29;20227;-63
2022/10/31 10:05:13;;;;;;;6.03;3.90;;;;;;;;;;4911245;29;20219;-63
2022/10/31 10:07:48;;;;;;;3.97;3.63;;;;;;;;;;4910957;29;20656;-62
2022/10/31 10:10:17;;;;;;;6.85;3.65;;;;;;;;;;4910911;29;20207;-63
2022/10/31 10:12:50;;;;;;;8.07;3.95;;;;;;;;;;4919277;29;20860;-63
2022/10/31 10:15:35;;;;;;;4.93;3.95;;;;;;;;;;4929818;29;20235;-63
2022/10/31 10:18:09;;;;;;;8.43;4.30;;;;;;;;;;4929901;29;20302;-63
2022/10/31 10:20:39;;;;;;;8.35;3.58;;;;;;;;;;4929973;29;20673;-63
2022/10/31 10:23:30;;;;;;;16.90;3.80;;;;;;;;;;4929578;29;20237;-63
2022/10/31 10:26:02;;;;;;;4.47;3.67;;;;;;;;;;4914877;29;20214;-64
2022/10/31 10:28:33;;;;;;;5.95;4.50;;;;;;;;;;4929774;29;20226;-64
2022/10/31 10:31:01;;;;;;;10.35;4.78;;;;;;;;;;4929673;29;20838;-64
2022/10/31 10:33:30;;;;;;;4.63;4.10;;;;;;;;;;4917588;29;20220;-64
2022/10/31 10:35:59;;;;;;;8.38;4.80;;;;;;;;;;4910714;29;20844;-64
2022/10/31 10:38:29;;;;;;;7.28;4.63;;;;;;;;;;4910071;29;20239;-63
2022/10/31 10:40:56;;;;;;;4.90;4.40;;;;;;;;;;4910546;29;20217;-64
2022/10/31 10:43:25;;;;;;;7.78;4.70;;;;;;;;;;4910449;29;20208;-64
2022/10/31 10:48:46;;;;;;;3.75;3.35;;;;;;;;;;4910452;29;20203;-64
2022/10/31 10:51:20;;;;;;;6.60;5.05;;;;;;;;;;4910560;29;20242;-64
2022/10/31 10:54:01;;;;;;;9.35;4.78;;;;;;;;;;4910262;29;20707;-64
2022/10/31 10:56:37;;;;;;;7.90;4.78;;;;;;;;;;4910073;29;20620;-64
2022/10/31 10:59:05;;;;;;;9.95;5.45;;;;;;;;;;4910399;29;20684;-64
2022/10/31 11:01:32;;;;;;;9.10;5.45;;;;;;;;;;4910430;29;20303;-64
2022/10/31 11:04:00;;;;;;;6.22;5.25;;;;;;;;;;4910246;29;20231;-64
2022/10/31 11:06:27;;;;;;;7.70;4.53;;;;;;;;;;4910419;29;20208;-64
2022/10/31 11:08:54;;;;;;;4.50;4.10;;;;;;;;;;4910509;29;20307;-64
2022/10/31 11:11:26;;;;;;;6.93;4.85;;;;;;;;;;4910326;29;20679;-64
2022/10/31 11:13:56;;;;;;;5.88;4.53;;;;;;;;;;4910185;29;20208;-64
2022/10/31 11:16:30;;;;;;;6.43;4.28;;;;;;;;;;4910537;29;20254;-64
2022/10/31 11:19:08;;;;;;;6.40;3.80;;;;;;;;;;4910571;29;20855;-64
2022/10/31 11:21:35;;;;;;;5.70;4.13;;;;;;;;;;4910508;29;20236;-64
2022/10/31 11:24:13;;;;;;;9.95;3.90;;;;;;;;;;4910175;29;20783;-64
2022/10/31 11:26:41;;;;;;;3.58;3.25;;;;;;;;;;4910361;29;20208;-64
2022/10/31 11:29:14;;;;;;;12.57;3.63;;;;;;;;;;4910537;29;20220;-64
2022/10/31 11:31:43;;;;;;;3.55;3.25;;;;;;;;;;4910343;29;20288;-64
2022/10/31 11:34:15;;;;;;;4.40;3.20;;;;;;;;;;4909889;29;20558;-64
2022/10/31 11:36:44;;;;;;;7.35;3.30;;;;;;;;;;4909935;29;20231;-64
2022/10/31 11:39:17;;;;;;;8.85;3.53;;;;;;;;;;4910078;29;20971;-64
2022/10/31 11:41:44;;;;;;;4.28;3.38;;;;;;;;;;4910170;29;20216;-64
2022/10/31 11:44:13;;;;;;;9.35;3.65;;;;;;;;;;4909917;29;20235;-64
2022/10/31 11:46:43;;;;;;;5.78;3.00;;;;;;;;;;4910073;29;20217;-64
2022/10/31 11:49:16;;;;;;;4.38;3.35;;;;;;;;;;4910087;29;20220;-64
2022/10/31 11:51:43;;;;;;;6.28;3.42;;;;;;;;;;4912102;29;20219;-64
2022/10/31 11:54:20;;;;;;;8.38;3.22;;;;;;;;;;4913426;29;20530;-64
2022/10/31 11:56:47;;;;;;;4.88;3.42;;;;;;;;;;4913192;29;20252;-64
2022/10/31 11:59:19;;;;;;;3.13;2.78;;;;;;;;;;4913516;29;20310;-64
2022/10/31 12:01:50;;;;;;;3.70;3.30;;;;;;;;;;4913428;29;20212;-64
2022/10/31 12:04:17;;;;;;;4.55;3.28;;;;;;;;;;4913065;29;20892;-64
2022/10/31 12:06:46;;;;;;;3.08;2.88;;;;;;;;;;4913406;29;20224;-64
2022/10/31 12:09:21;;;;;;;3.60;3.30;;;;;;;;;;4913397;29;20240;-65
2022/10/31 12:11:54;;;;;;;3.70;2.83;;;;;;;;;;4913168;29;20582;-64
2022/10/31 12:14:29;;;;;;;3.47;3.15;;;;;;;;;;4913038;29;20228;-65
2022/10/31 12:16:59;;;;;;;6.10;3.45;;;;;;;;;;4913126;29;20319;-64
2022/10/31 12:19:32;;;;;;;4.68;3.33;;;;;;;;;;4913060;29;20216;-64
2022/10/31 12:22:16;;;;;;;3.92;3.47;;;;;;;;;;4913122;29;20241;-64
2022/10/31 12:24:52;;;;;;;9.65;3.17;;;;;;;;;;4912669;29;20216;-64
2022/10/31 12:27:25;;;;;;;5.93;3.75;;;;;;;;;;4912884;29;20223;-64
2022/10/31 12:30:01;;;;;;;4.97;3.17;;;;;;;;;;4912924;29;20216;-64
2022/10/31 12:32:34;;;;;;;3.92;3.10;;;;;;;;;;4912758;29;20667;-64
2022/10/31 12:35:11;;;;;;;4.10;3.13;;;;;;;;;;4912559;29;20213;-64
2022/10/31 12:37:44;;;;;;;4.68;2.90;;;;;;;;;;4912827;29;20426;-64
2022/10/31 12:40:28;;;;;;;3.03;2.40;;;;;;;;;;4912682;29;20212;-64
2022/10/31 12:43:01;;;;;;;4.97;2.88;;;;;;;;;;4912533;29;20632;-64
2022/10/31 12:45:37;;;;;;;3.35;2.53;;;;;;;;;;4912498;29;20208;-64
2022/10/31 12:48:17;;;;;;;3.38;2.65;;;;;;;;;;4912638;29;20220;-64
2022/10/31 12:50:52;;;;;;;3.47;2.50;;;;;;;;;;4912615;29;20671;-64
2022/10/31 12:53:26;;;;;;;5.95;2.63;;;;;;;;;;4912365;29;20706;-64
2022/10/31 12:55:57;;;;;;;2.60;2.40;;;;;;;;;;4912024;29;20258;-64
2022/10/31 12:58:27;;;;;;;3.75;2.42;;;;;;;;;;4912264;29;20865;-64
2022/10/31 13:01:00;;;;;;;2.10;2.00;;;;;;;;;;4912544;29;20224;-64
2022/10/31 13:03:30;;;;;;;2.83;2.38;;;;;;;;;;4912084;29;20270;-64
2022/10/31 13:05:59;;;;;;;3.17;2.65;;;;;;;;;;4912548;29;20295;-64
2022/10/31 13:08:30;;;;;;;5.65;2.50;;;;;;;;;;4912223;29;20216;-64
2022/10/31 13:11:00;;;;;;;3.78;2.28;;;;;;;;;;4912186;29;20220;-64
2022/10/31 13:13:29;;;;;;;3.13;2.45;;;;;;;;;;4911964;29;20239;-64
2022/10/31 13:15:58;;;;;;;2.72;2.53;;;;;;;;;;4920649;29;20231;-64
2022/10/31 13:18:28;;;;;;;3.10;2.85;;;;;;;;;;4930795;29;20216;-64
2022/10/31 13:20:57;;;;;;;3.05;2.53;;;;;;;;;;4930852;29;20748;-64
2022/10/31 13:23:27;;;;;;;3.53;2.53;;;;;;;;;;4930794;29;20218;-64
2022/10/31 13:25:55;;;;;;;4.00;2.80;;;;;;;;;;4930601;29;20223;-64
2022/10/31 13:28:27;;;;;;;2.88;2.60;;;;;;;;;;4930764;29;20227;-64
2022/10/31 13:30:54;;;;;;;2.45;2.25;;;;;;;;;;4930803;29;20223;-63
2022/10/31 13:33:25;;;;;;;4.95;2.60;;;;;;;;;;4919976;29;20228;-64
2022/10/31 13:35:54;;;;;;;3.45;2.75;;;;;;;;;;4911657;29;20240;-63
2022/10/31 13:38:25;;;;;;;3.05;2.58;;;;;;;;;;4911691;29;20227;-64
2022/10/31 13:40:55;;;;;;;3.55;2.65;;;;;;;;;;4911661;29;20599;-64
2022/10/31 13:43:30;;;;;;;6.00;2.75;;;;;;;;;;4911517;29;20220;-64
2022/10/31 13:45:57;;;;;;;4.93;2.50;;;;;;;;;;4911561;29;20587;-64
2022/10/31 13:48:35;;;;;;;2.60;2.30;;;;;;;;;;4911679;29;20220;-64
2022/10/31 13:51:04;;;;;;;2.55;2.35;;;;;;;;;;4919119;29;20231;-64
2022/10/31 13:53:53;;;;;;;2.70;2.42;;;;;;;;;;4930499;29;20211;-64
2022/10/31 13:56:23;;;;;;;2.15;2.05;;;;;;;;;;4925493;29;20243;-65
2022/10/31 13:59:04;;;;;;;6.47;2.72;;;;;;;;;;4930555;29;20303;-65
2022/10/31 14:01:32;;;;;;;4.68;2.50;;;;;;;;;;4930235;29;20212;-65
2022/10/31 14:04:01;;;;;;;5.13;2.90;;;;;;;;;;4914515;29;20225;-66
2022/10/31 14:06:42;;;;;;;4.63;2.50;;;;;;;;;;4929203;29;20556;-65
2022/10/31 14:09:30;;;;;;;4.55;2.83;;;;;;;;;;4930314;29;20224;-65
2022/10/31 14:12:01;;;;;;;3.10;2.58;;;;;;;;;;4906370;29;20306;-65
2022/10/31 14:14:32;;;;;;;4.55;2.45;;;;;;;;;;4910183;29;20212;-65
2022/10/31 14:17:00;;;;;;;3.88;2.88;;;;;;;;;;4910829;29;20262;-65
2022/10/31 14:19:27;;;;;;;5.18;3.03;;;;;;;;;;4910990;29;20211;-65
2022/10/31 14:21:55;;;;;;;2.70;2.50;;;;;;;;;;4910865;29;20268;-63
2022/10/31 14:24:35;;;;;;;6.95;2.70;;;;;;;;;;4910771;29;20213;-70
2022/10/31 14:27:05;;;;;;;4.85;2.55;;;;;;;;;;4910584;29;20752;-62
2022/10/31 14:29:33;;;;;;;4.70;3.03;;;;;;;;;;4900631;29;20209;-63
2022/10/31 14:32:07;;;;;;;3.33;3.05;;;;;;;;;;4909791;29;20566;-63
2022/10/31 14:34:35;;;;;;;5.82;2.97;;;;;;;;;;4911101;29;20216;-64
2022/10/31 14:37:18;;;;;;;2.70;2.60;;;;;;;;;;4910546;29;20264;-63
2022/10/31 14:39:51;;;;;;;5.07;2.90;;;;;;;;;;4910225;29;20694;-64
2022/10/31 14:42:29;;;;;;;4.65;3.05;;;;;;;;;;4911025;29;20223;-64
2022/10/31 14:45:03;;;;;;;2.88;2.47;;;;;;;;;;4911115;29;20223;-64
2022/10/31 14:47:37;;;;;;;3.85;2.75;;;;;;;;;;4910292;29;20215;-64
2022/10/31 14:50:25;;;;;;;4.00;2.83;;;;;;;;;;4910249;29;20682;-64
2022/10/31 14:52:54;;;;;;;3.65;3.03;;;;;;;;;;4903903;29;20212;-64
2022/10/31 14:55:22;;;;;;;2.88;2.67;;;;;;;;;;4908994;29;20640;-64
2022/10/31 14:57:52;;;;;;;3.20;2.63;;;;;;;;;;4909097;29;20252;-60
2022/10/31 15:00:20;;;;;;;3.15;2.22;;;;;;;;;;4910798;29;20506;-64